sensor_id;sensor_type;location;lat;lon;timestamp;P1;durP1;ratioP1;P2;durP2;ratioP2
73315;SDS011;61545;53.726;-0.444;2023-03-13T00:01:29;4.8;;;4;;
73315;SDS011;61545;53.726;-0.444;2023-03-13T00:06:29;5.3;;;3.7;;
73315;SDS011;61545;53.726;-0.444;2023-03-13T00:11:28;5.8;;;3.5;;
73315;SDS011;61545;53.726;-0.444;2023-03-13T00:16:28;5.8;;;3.5;;
73315;SDS011;61545;53.726;-0.444;2023-03-13T00:21:28;6.2;;;3.8;;
73315;SDS011;61545;53.726;-0.444;2023-03-13T00:26:28;5.4;;;3.5;;
73315;SDS011;61545;53.726;-0.444;2023-03-13T00:31:28;3.4;;;3.1;;
73315;SDS011;61545;53.726;-0.444;2023-03-13T00:36:29;3.8;;;3.2;;
73315;SDS011;61545;53.726;-0.444;2023-03-13T00:41:29;6.0;;;3.7;;
73315;SDS011;61545;53.726;-0.444;2023-03-13T00:46:28;6.0;;;3.7;;
73315;SDS011;61545;53.726;-0.444;2023-03-13T00:51:28;5.4;;;3.5;;
73315;SDS011;61545;53.726;-0.444;2023-03-13T00:56:28;4.8;;;3.6;;
73315;SDS011;61545;53.726;-0.444;2023-03-13T01:01:31;6.6;;;3.5;;
73315;SDS011;61545;53.726;-0.444;2023-03-13T02:56:29;4.4;;;2;;
73315;SDS011;61545;53.726;-0.444;2023-03-13T03:01:28;3.5;;;1.8;;
73315;SDS011;61545;53.726;-0.444;2023-03-13T03:06:28;3.1;;;1.9;;
73315;SDS011;61545;53.726;-0.444;2023-03-13T03:11:28;5.2;;;1.9;;
73315;SDS011;61545;53.726;-0.444;2023-03-13T03:16:28;5.2;;;1.9;;
73315;SDS011;61545;53.726;-0.444;2023-03-13T03:21:28;3.9;;;1.7;;
73315;SDS011;61545;53.726;-0.444;2023-03-13T03:26:28;4.4;;;1.7;;
73315;SDS011;61545;53.726;-0.444;2023-03-13T03:31:28;3.2;;;1.5;;
73315;SDS011;61545;53.726;-0.444;2023-03-13T03:36:28;3.6;;;1.3;;
73315;SDS011;61545;53.726;-0.444;2023-03-13T03:41:28;5.6;;;1.5;;
73315;SDS011;61545;53.726;-0.444;2023-03-13T03:46:28;5.6;;;1.5;;
73315;SDS011;61545;53.726;-0.444;2023-03-13T03:51:28;2.4;;;1.2;;
73315;SDS011;61545;53.726;-0.444;2023-03-13T03:56:28;3.1;;;1.3;;
73315;SDS011;61545;53.726;-0.444;2023-03-13T04:01:28;1.9;;;1.3;;
73315;SDS011;61545;53.726;-0.444;2023-03-13T04:06:28;1.2;;;0.8;;
73315;SDS011;61545;53.726;-0.444;2023-03-13T04:11:28;2.4;;;0.9;;
73315;SDS011;61545;53.726;-0.444;2023-03-13T04:16:28;2.4;;;0.9;;
73315;SDS011;61545;53.726;-0.444;2023-03-13T04:21:28;3.4;;;1.1;;
73315;SDS011;61545;53.726;-0.444;2023-03-13T04:26:28;3.5;;;1.6;;
73315;SDS011;61545;53.726;-0.444;2023-03-13T04:31:28;6.3;;;2.1;;
73315;SDS011;61545;53.726;-0.444;2023-03-13T04:36:28;5.5;;;2.3;;
73315;SDS011;61545;53.726;-0.444;2023-03-13T04:41:28;5.5;;;2.1;;
73315;SDS011;61545;53.726;-0.444;2023-03-13T04:46:28;5.5;;;2.1;;
73315;SDS011;61545;53.726;-0.444;2023-03-13T04:51:28;4.7;;;2.1;;
73315;SDS011;61545;53.726;-0.444;2023-03-13T04:56:28;5.9;;;2;;
73315;SDS011;61545;53.726;-0.444;2023-03-13T05:01:28;5.6;;;2.2;;
73315;SDS011;61545;53.726;-0.444;2023-03-13T05:06:28;8.3;;;2.9;;
73315;SDS011;61545;53.726;-0.444;2023-03-13T05:11:28;7.3;;;2.3;;
73315;SDS011;61545;53.726;-0.444;2023-03-13T05:16:28;7.3;;;2.3;;
73315;SDS011;61545;53.726;-0.444;2023-03-13T05:21:28;9.9;;;2.9;;
73315;SDS011;61545;53.726;-0.444;2023-03-13T05:26:28;11.9;;;3.3;;
73315;SDS011;61545;53.726;-0.444;2023-03-13T05:31:28;12.4;;;3;;
73315;SDS011;61545;53.726;-0.444;2023-03-13T05:36:28;14.6;;;3.3;;
73315;SDS011;61545;53.726;-0.444;2023-03-13T05:41:28;10.8;;;2.8;;
73315;SDS011;61545;53.726;-0.444;2023-03-13T05:46:28;10.8;;;2.8;;
73315;SDS011;61545;53.726;-0.444;2023-03-13T05:51:28;13.7;;;2.5;;
73315;SDS011;61545;53.726;-0.444;2023-03-13T05:56:28;11.4;;;3.1;;
73315;SDS011;61545;53.726;-0.444;2023-03-13T06:01:28;10.9;;;2.2;;
73315;SDS011;61545;53.726;-0.444;2023-03-13T06:06:28;7.4;;;1.5;;
73315;SDS011;61545;53.726;-0.444;2023-03-13T06:11:28;7.1;;;1.5;;
73315;SDS011;61545;53.726;-0.444;2023-03-13T06:16:28;7.1;;;1.5;;
73315;SDS011;61545;53.726;-0.444;2023-03-13T06:21:28;8.5;;;1.9;;
73315;SDS011;61545;53.726;-0.444;2023-03-13T06:26:28;8.2;;;2.2;;
73315;SDS011;61545;53.726;-0.444;2023-03-13T06:31:28;8.1;;;2.3;;
73315;SDS011;61545;53.726;-0.444;2023-03-13T06:36:28;12.5;;;3.4;;
73315;SDS011;61545;53.726;-0.444;2023-03-13T06:41:28;13.3;;;2.8;;
73315;SDS011;61545;53.726;-0.444;2023-03-13T06:46:28;13.3;;;2.8;;
73315;SDS011;61545;53.726;-0.444;2023-03-13T06:51:28;11.3;;;2.4;;
73315;SDS011;61545;53.726;-0.444;2023-03-13T06:56:28;12.7;;;3.3;;
73315;SDS011;61545;53.726;-0.444;2023-03-13T07:01:28;16.1;;;3;;
73315;SDS011;61545;53.726;-0.444;2023-03-13T07:06:28;15.8;;;3;;
73315;SDS011;61545;53.726;-0.444;2023-03-13T07:11:28;15.3;;;3;;
73315;SDS011;61545;53.726;-0.444;2023-03-13T07:16:28;15.3;;;3;;
73315;SDS011;61545;53.726;-0.444;2023-03-13T07:21:28;15.0;;;3.7;;
73315;SDS011;61545;53.726;-0.444;2023-03-13T07:26:28;11.4;;;2.3;;
73315;SDS011;61545;53.726;-0.444;2023-03-13T07:31:28;11.2;;;2.5;;
73315;SDS011;61545;53.726;-0.444;2023-03-13T07:36:28;13.5;;;2.3;;
73315;SDS011;61545;53.726;-0.444;2023-03-13T07:41:28;15.7;;;3.2;;
73315;SDS011;61545;53.726;-0.444;2023-03-13T07:46:28;15.7;;;3.2;;
73315;SDS011;61545;53.726;-0.444;2023-03-13T07:51:28;22.4;;;3.4;;
73315;SDS011;61545;53.726;-0.444;2023-03-13T07:56:28;13.9;;;2.8;;
73315;SDS011;61545;53.726;-0.444;2023-03-13T08:01:28;20.6;;;3.4;;
73315;SDS011;61545;53.726;-0.444;2023-03-13T08:06:29;21.5;;;3.9;;
73315;SDS011;61545;53.726;-0.444;2023-03-13T08:11:28;17.5;;;3;;
73315;SDS011;61545;53.726;-0.444;2023-03-13T08:16:29;17.5;;;3;;
73315;SDS011;61545;53.726;-0.444;2023-03-13T08:21:28;21.5;;;4.2;;
73315;SDS011;61545;53.726;-0.444;2023-03-13T08:26:28;15.8;;;3.1;;
73315;SDS011;61545;53.726;-0.444;2023-03-13T08:31:29;14.3;;;3.7;;
73315;SDS011;61545;53.726;-0.444;2023-03-13T08:36:30;15.6;;;3;;
73315;SDS011;61545;53.726;-0.444;2023-03-13T08:41:29;15.0;;;3.3;;
73315;SDS011;61545;53.726;-0.444;2023-03-13T08:46:28;15.0;;;3.3;;
73315;SDS011;61545;53.726;-0.444;2023-03-13T08:51:28;16.7;;;3.5;;
73315;SDS011;61545;53.726;-0.444;2023-03-13T08:56:28;15.3;;;3.2;;
73315;SDS011;61545;53.726;-0.444;2023-03-13T09:01:29;16.0;;;3.1;;
73315;SDS011;61545;53.726;-0.444;2023-03-13T09:06:28;14.0;;;3.1;;
73315;SDS011;61545;53.726;-0.444;2023-03-13T09:11:28;16.0;;;3.3;;
73315;SDS011;61545;53.726;-0.444;2023-03-13T09:16:28;16.0;;;3.3;;
73315;SDS011;61545;53.726;-0.444;2023-03-13T09:21:29;17.9;;;3.2;;
73315;SDS011;61545;53.726;-0.444;2023-03-13T09:26:28;10.7;;;2.5;;
73315;SDS011;61545;53.726;-0.444;2023-03-13T09:31:28;7.8;;;2.2;;
73315;SDS011;61545;53.726;-0.444;2023-03-13T09:36:28;10.3;;;2.6;;
73315;SDS011;61545;53.726;-0.444;2023-03-13T09:41:32;11.6;;;2.5;;
73315;SDS011;61545;53.726;-0.444;2023-03-13T09:46:32;11.6;;;2.5;;
73315;SDS011;61545;53.726;-0.444;2023-03-13T09:51:28;10.3;;;2.2;;
73315;SDS011;61545;53.726;-0.444;2023-03-13T09:56:30;10.2;;;2.3;;
73315;SDS011;61545;53.726;-0.444;2023-03-13T10:01:28;10.4;;;2.3;;
73315;SDS011;61545;53.726;-0.444;2023-03-13T10:06:29;9.2;;;1.7;;
73315;SDS011;61545;53.726;-0.444;2023-03-13T10:11:29;8.2;;;1.6;;
73315;SDS011;61545;53.726;-0.444;2023-03-13T10:16:29;8.2;;;1.6;;
73315;SDS011;61545;53.726;-0.444;2023-03-13T10:21:31;7.9;;;1.8;;
73315;SDS011;61545;53.726;-0.444;2023-03-13T10:26:29;3.8;;;1;;
73315;SDS011;61545;53.726;-0.444;2023-03-13T10:31:30;4.1;;;1;;
73315;SDS011;61545;53.726;-0.444;2023-03-13T10:36:28;2.5;;;0.6;;
73315;SDS011;61545;53.726;-0.444;2023-03-13T10:41:28;2.4;;;0.5;;
73315;SDS011;61545;53.726;-0.444;2023-03-13T10:46:29;2.4;;;0.5;;
73315;SDS011;61545;53.726;-0.444;2023-03-13T10:51:32;3.5;;;0.8;;
73315;SDS011;61545;53.726;-0.444;2023-03-13T10:56:28;1.6;;;0.5;;
73315;SDS011;61545;53.726;-0.444;2023-03-13T11:01:28;2.2;;;0.7;;
73315;SDS011;61545;53.726;-0.444;2023-03-13T11:06:28;2.0;;;0.6;;
73315;SDS011;61545;53.726;-0.444;2023-03-13T11:11:28;3.8;;;0.6;;
73315;SDS011;61545;53.726;-0.444;2023-03-13T11:16:28;3.8;;;0.6;;
73315;SDS011;61545;53.726;-0.444;2023-03-13T11:21:31;3.6;;;0.8;;
73315;SDS011;61545;53.726;-0.444;2023-03-13T11:26:31;3.0;;;0.9;;
73315;SDS011;61545;53.726;-0.444;2023-03-13T11:31:30;4.6;;;0.9;;
73315;SDS011;61545;53.726;-0.444;2023-03-13T11:36:31;1.7;;;0.6;;
73315;SDS011;61545;53.726;-0.444;2023-03-13T11:41:36;3.3;;;0.7;;
73315;SDS011;61545;53.726;-0.444;2023-03-13T11:46:33;3.3;;;0.7;;
73315;SDS011;61545;53.726;-0.444;2023-03-13T11:51:31;4.7;;;0.8;;
73315;SDS011;61545;53.726;-0.444;2023-03-13T11:56:29;2.1;;;0.8;;
73315;SDS011;61545;53.726;-0.444;2023-03-13T12:01:29;2.7;;;0.7;;
73315;SDS011;61545;53.726;-0.444;2023-03-13T12:06:29;2.4;;;0.6;;
73315;SDS011;61545;53.726;-0.444;2023-03-13T12:11:30;3.3;;;1;;
73315;SDS011;61545;53.726;-0.444;2023-03-13T12:16:36;3.3;;;1;;
73315;SDS011;61545;53.726;-0.444;2023-03-13T12:21:29;2.4;;;0.9;;
73315;SDS011;61545;53.726;-0.444;2023-03-13T12:26:33;1.7;;;0.4;;
73315;SDS011;61545;53.726;-0.444;2023-03-13T12:31:29;1.5;;;0.5;;
73315;SDS011;61545;53.726;-0.444;2023-03-13T12:36:30;2.0;;;0.5;;
73315;SDS011;61545;53.726;-0.444;2023-03-13T12:41:30;3.0;;;0.9;;
73315;SDS011;61545;53.726;-0.444;2023-03-13T12:46:34;3.0;;;0.9;;
73315;SDS011;61545;53.726;-0.444;2023-03-13T12:51:35;3.3;;;0.9;;
73315;SDS011;61545;53.726;-0.444;2023-03-13T12:56:36;4.4;;;0.8;;
73315;SDS011;61545;53.726;-0.444;2023-03-13T13:01:30;2.4;;;0.8;;
73315;SDS011;61545;53.726;-0.444;2023-03-13T13:06:29;4.0;;;0.9;;
73315;SDS011;61545;53.726;-0.444;2023-03-13T13:11:45;4.5;;;1;;
73315;SDS011;61545;53.726;-0.444;2023-03-13T13:16:28;4.5;;;1;;
73315;SDS011;61545;53.726;-0.444;2023-03-13T13:21:28;4.2;;;1;;
73315;SDS011;61545;53.726;-0.444;2023-03-13T13:31:44;3.9;;;1.3;;
73315;SDS011;61545;53.726;-0.444;2023-03-13T13:36:29;5.7;;;1.4;;
73315;SDS011;61545;53.726;-0.444;2023-03-13T13:41:35;6.9;;;1.4;;
73315;SDS011;61545;53.726;-0.444;2023-03-13T13:46:29;6.9;;;1.4;;
73315;SDS011;61545;53.726;-0.444;2023-03-13T13:51:28;4.5;;;1.3;;
73315;SDS011;61545;53.726;-0.444;2023-03-13T13:56:31;5.7;;;1.8;;
73315;SDS011;61545;53.726;-0.444;2023-03-13T14:01:28;7.1;;;1.9;;
73315;SDS011;61545;53.726;-0.444;2023-03-13T14:06:29;3.6;;;1.2;;
73315;SDS011;61545;53.726;-0.444;2023-03-13T14:11:29;7.6;;;1.4;;
73315;SDS011;61545;53.726;-0.444;2023-03-13T14:16:28;7.6;;;1.4;;
73315;SDS011;61545;53.726;-0.444;2023-03-13T14:21:28;4.2;;;1.2;;
73315;SDS011;61545;53.726;-0.444;2023-03-13T14:26:28;6.7;;;1.7;;
73315;SDS011;61545;53.726;-0.444;2023-03-13T14:31:29;8.1;;;1.7;;
73315;SDS011;61545;53.726;-0.444;2023-03-13T14:36:28;8.5;;;2.1;;
73315;SDS011;61545;53.726;-0.444;2023-03-13T14:41:29;6.6;;;1.8;;
73315;SDS011;61545;53.726;-0.444;2023-03-13T14:46:29;6.6;;;1.8;;
73315;SDS011;61545;53.726;-0.444;2023-03-13T14:51:28;7.2;;;2.1;;
73315;SDS011;61545;53.726;-0.444;2023-03-13T14:56:30;12.1;;;2.4;;
73315;SDS011;61545;53.726;-0.444;2023-03-13T15:01:28;8.5;;;2.1;;
73315;SDS011;61545;53.726;-0.444;2023-03-13T15:06:28;12.2;;;2.2;;
73315;SDS011;61545;53.726;-0.444;2023-03-13T15:11:29;9.0;;;1.8;;
73315;SDS011;61545;53.726;-0.444;2023-03-13T15:16:28;9.0;;;1.8;;
73315;SDS011;61545;53.726;-0.444;2023-03-13T15:21:28;10.8;;;2.1;;
73315;SDS011;61545;53.726;-0.444;2023-03-13T15:26:28;7.4;;;1.9;;
73315;SDS011;61545;53.726;-0.444;2023-03-13T15:31:28;13.0;;;2.9;;
73315;SDS011;61545;53.726;-0.444;2023-03-13T15:36:29;11.5;;;2.2;;
73315;SDS011;61545;53.726;-0.444;2023-03-13T15:41:28;8.9;;;2;;
73315;SDS011;61545;53.726;-0.444;2023-03-13T15:46:28;8.9;;;2;;
73315;SDS011;61545;53.726;-0.444;2023-03-13T15:51:28;11.5;;;2.5;;
73315;SDS011;61545;53.726;-0.444;2023-03-13T15:56:29;13.7;;;2.9;;
73315;SDS011;61545;53.726;-0.444;2023-03-13T16:01:28;12.0;;;2.4;;
73315;SDS011;61545;53.726;-0.444;2023-03-13T16:06:28;10.2;;;2.4;;
73315;SDS011;61545;53.726;-0.444;2023-03-13T16:11:28;8.1;;;1.9;;
73315;SDS011;61545;53.726;-0.444;2023-03-13T16:16:35;8.1;;;1.9;;
73315;SDS011;61545;53.726;-0.444;2023-03-13T16:21:29;5.9;;;1.8;;
73315;SDS011;61545;53.726;-0.444;2023-03-13T16:26:29;8.8;;;2.2;;
73315;SDS011;61545;53.726;-0.444;2023-03-13T16:31:29;8.6;;;1.9;;
73315;SDS011;61545;53.726;-0.444;2023-03-13T16:36:29;10.3;;;2.1;;
73315;SDS011;61545;53.726;-0.444;2023-03-13T16:41:28;8.7;;;2;;
73315;SDS011;61545;53.726;-0.444;2023-03-13T16:46:31;8.7;;;2;;
73315;SDS011;61545;53.726;-0.444;2023-03-13T16:51:28;11.0;;;2.3;;
73315;SDS011;61545;53.726;-0.444;2023-03-13T16:56:29;10.7;;;2;;
73315;SDS011;61545;53.726;-0.444;2023-03-13T17:01:28;8.7;;;2.2;;
73315;SDS011;61545;53.726;-0.444;2023-03-13T17:06:30;14.1;;;2.7;;
73315;SDS011;61545;53.726;-0.444;2023-03-13T17:11:28;13.5;;;2.6;;
73315;SDS011;61545;53.726;-0.444;2023-03-13T17:16:29;13.5;;;2.6;;
73315;SDS011;61545;53.726;-0.444;2023-03-13T17:21:29;12.7;;;2.4;;
73315;SDS011;61545;53.726;-0.444;2023-03-13T17:26:30;9.8;;;2.4;;
73315;SDS011;61545;53.726;-0.444;2023-03-13T17:31:28;12.8;;;2.8;;
73315;SDS011;61545;53.726;-0.444;2023-03-13T17:36:28;16.0;;;3.2;;
73315;SDS011;61545;53.726;-0.444;2023-03-13T17:41:29;11.1;;;3;;
73315;SDS011;61545;53.726;-0.444;2023-03-13T17:46:30;11.1;;;3;;
73315;SDS011;61545;53.726;-0.444;2023-03-13T17:51:29;14.7;;;3;;
73315;SDS011;61545;53.726;-0.444;2023-03-13T17:56:29;13.7;;;3.3;;
73315;SDS011;61545;53.726;-0.444;2023-03-13T18:01:29;17.9;;;3.4;;
73315;SDS011;61545;53.726;-0.444;2023-03-13T18:06:29;13.7;;;3.4;;
73315;SDS011;61545;53.726;-0.444;2023-03-13T18:11:28;17.5;;;3.8;;
73315;SDS011;61545;53.726;-0.444;2023-03-13T18:16:29;17.5;;;3.8;;
73315;SDS011;61545;53.726;-0.444;2023-03-13T18:21:28;18.2;;;3.7;;
73315;SDS011;61545;53.726;-0.444;2023-03-13T18:26:29;16.0;;;3.1;;
73315;SDS011;61545;53.726;-0.444;2023-03-13T18:31:28;16.0;;;3.3;;
73315;SDS011;61545;53.726;-0.444;2023-03-13T18:36:28;19.3;;;3.7;;
73315;SDS011;61545;53.726;-0.444;2023-03-13T18:41:28;22.1;;;3.9;;
73315;SDS011;61545;53.726;-0.444;2023-03-13T18:46:29;22.1;;;3.9;;
73315;SDS011;61545;53.726;-0.444;2023-03-13T18:51:28;22.7;;;4.4;;
73315;SDS011;61545;53.726;-0.444;2023-03-13T18:56:28;17.7;;;3.6;;
73315;SDS011;61545;53.726;-0.444;2023-03-13T19:01:29;22.7;;;4.1;;
73315;SDS011;61545;53.726;-0.444;2023-03-13T19:06:29;23.4;;;4.1;;
73315;SDS011;61545;53.726;-0.444;2023-03-13T19:11:30;21.3;;;4.1;;
73315;SDS011;61545;53.726;-0.444;2023-03-13T19:16:29;21.3;;;4.1;;
73315;SDS011;61545;53.726;-0.444;2023-03-13T19:21:29;23.6;;;4.6;;
73315;SDS011;61545;53.726;-0.444;2023-03-13T19:26:29;19.7;;;3.6;;
73315;SDS011;61545;53.726;-0.444;2023-03-13T19:31:28;33.2;;;8.6;;
73315;SDS011;61545;53.726;-0.444;2023-03-13T19:36:28;30.2;;;5.4;;
73315;SDS011;61545;53.726;-0.444;2023-03-13T19:41:28;19.5;;;3.8;;
73315;SDS011;61545;53.726;-0.444;2023-03-13T19:46:28;19.5;;;3.8;;
73315;SDS011;61545;53.726;-0.444;2023-03-13T19:51:28;24.2;;;4.4;;
73315;SDS011;61545;53.726;-0.444;2023-03-13T19:56:29;19.7;;;3.6;;
73315;SDS011;61545;53.726;-0.444;2023-03-13T20:01:28;22.4;;;4.9;;
73315;SDS011;61545;53.726;-0.444;2023-03-13T20:06:29;15.0;;;3.2;;
73315;SDS011;61545;53.726;-0.444;2023-03-13T20:11:28;15.0;;;3.2;;
73315;SDS011;61545;53.726;-0.444;2023-03-13T20:16:28;18.3;;;3.7;;
73315;SDS011;61545;53.726;-0.444;2023-03-13T20:21:29;13.5;;;2.6;;
73315;SDS011;61545;53.726;-0.444;2023-03-13T20:26:28;16.0;;;3;;
73315;SDS011;61545;53.726;-0.444;2023-03-13T20:31:29;15.7;;;2.9;;
73315;SDS011;61545;53.726;-0.444;2023-03-13T20:36:28;16.2;;;3.4;;
73315;SDS011;61545;53.726;-0.444;2023-03-13T20:41:28;16.2;;;3.4;;
73315;SDS011;61545;53.726;-0.444;2023-03-13T20:46:28;8.0;;;2.1;;
73315;SDS011;61545;53.726;-0.444;2023-03-13T20:51:28;5.7;;;1.3;;
73315;SDS011;61545;53.726;-0.444;2023-03-13T20:56:28;2.7;;;1.1;;
73315;SDS011;61545;53.726;-0.444;2023-03-13T21:01:28;2.9;;;1;;
73315;SDS011;61545;53.726;-0.444;2023-03-13T21:06:28;5.4;;;0.9;;
73315;SDS011;61545;53.726;-0.444;2023-03-13T21:11:28;5.4;;;0.9;;
73315;SDS011;61545;53.726;-0.444;2023-03-13T21:16:28;3.7;;;0.8;;
73315;SDS011;61545;53.726;-0.444;2023-03-13T21:21:28;1.7;;;0.8;;
73315;SDS011;61545;53.726;-0.444;2023-03-13T21:26:28;0.8;;;0.6;;
73315;SDS011;61545;53.726;-0.444;2023-03-13T21:31:28;0.6;;;0.4;;
73315;SDS011;61545;53.726;-0.444;2023-03-13T21:36:28;0.9;;;0.6;;
73315;SDS011;61545;53.726;-0.444;2023-03-13T21:41:28;0.9;;;0.6;;
73315;SDS011;61545;53.726;-0.444;2023-03-13T21:46:28;1.3;;;0.4;;
73315;SDS011;61545;53.726;-0.444;2023-03-13T21:51:28;1.8;;;0.4;;
73315;SDS011;61545;53.726;-0.444;2023-03-13T21:56:28;0.9;;;0.3;;
73315;SDS011;61545;53.726;-0.444;2023-03-13T22:01:28;1.4;;;0.5;;
73315;SDS011;61545;53.726;-0.444;2023-03-13T22:06:28;2.1;;;0.4;;
73315;SDS011;61545;53.726;-0.444;2023-03-13T22:11:28;2.1;;;0.4;;
73315;SDS011;61545;53.726;-0.444;2023-03-13T22:16:28;3.4;;;1.8;;
73315;SDS011;61545;53.726;-0.444;2023-03-13T22:21:28;2.5;;;1.1;;
73315;SDS011;61545;53.726;-0.444;2023-03-13T22:26:28;1.4;;;0.6;;
73315;SDS011;61545;53.726;-0.444;2023-03-13T22:31:28;1.0;;;0.6;;
73315;SDS011;61545;53.726;-0.444;2023-03-13T22:36:28;1.3;;;0.9;;
73315;SDS011;61545;53.726;-0.444;2023-03-13T22:41:28;1.3;;;0.9;;
73315;SDS011;61545;53.726;-0.444;2023-03-13T22:46:28;4.1;;;1.4;;
73315;SDS011;61545;53.726;-0.444;2023-03-13T22:51:28;1.8;;;0.7;;
73315;SDS011;61545;53.726;-0.444;2023-03-13T22:56:28;1.5;;;0.3;;
73315;SDS011;61545;53.726;-0.444;2023-03-13T23:01:28;0.8;;;0.2;;
73315;SDS011;61545;53.726;-0.444;2023-03-13T23:06:28;5.6;;;0.7;;
73315;SDS011;61545;53.726;-0.444;2023-03-13T23:11:28;5.6;;;0.7;;
73315;SDS011;61545;53.726;-0.444;2023-03-13T23:16:28;1.9;;;0.5;;
73315;SDS011;61545;53.726;-0.444;2023-03-13T23:21:28;2.1;;;0.5;;
73315;SDS011;61545;53.726;-0.444;2023-03-13T23:26:28;4.3;;;0.8;;
73315;SDS011;61545;53.726;-0.444;2023-03-13T23:31:28;4.9;;;0.6;;
73315;SDS011;61545;53.726;-0.444;2023-03-13T23:36:28;5.1;;;0.8;;
73315;SDS011;61545;53.726;-0.444;2023-03-13T23:41:28;5.1;;;0.8;;
73315;SDS011;61545;53.726;-0.444;2023-03-13T23:46:28;4.4;;;0.6;;
73315;SDS011;61545;53.726;-0.444;2023-03-13T23:51:28;3.2;;;0.7;;
73315;SDS011;61545;53.726;-0.444;2023-03-13T23:56:29;2.7;;;0.6;;
